createdAt,value
2018-11-28T00:00:52.665Z,40.40
2018-11-28T00:03:20.861Z,38.13
2018-11-28T00:05:49.009Z,31.33
2018-11-28T00:08:17.172Z,38.97
2018-11-28T00:10:45.381Z,48.57
2018-11-28T00:13:13.528Z,47.97
2018-11-28T00:15:41.708Z,54.60
2018-11-28T00:18:09.892Z,51.33
2018-11-28T00:20:38.149Z,56.13
2018-11-28T00:23:06.325Z,59.27
2018-11-28T00:25:34.525Z,61.10
2018-11-28T00:28:02.669Z,60.10
2018-11-28T00:30:30.840Z,55.97
2018-11-28T00:32:59.046Z,62.27
2018-11-28T00:35:27.194Z,55.87
2018-11-28T00:37:55.364Z,60.90
2018-11-28T00:40:24.074Z,57.13
2018-11-28T00:42:52.251Z,62.37
2018-11-28T00:45:21.832Z,57.33
2018-11-28T00:47:50.021Z,53.43
2018-11-28T00:50:24.484Z,56.80
2018-11-28T00:52:52.866Z,53.63
2018-11-28T00:55:20.969Z,54.80
2018-11-28T00:57:49.148Z,57.67
2018-11-28T01:00:22.063Z,57.03
2018-11-28T01:02:50.577Z,52.73
2018-11-28T01:05:18.729Z,57.40
2018-11-28T01:07:48.783Z,52.20
2018-11-28T01:10:18.208Z,50.03
2018-11-28T01:12:46.581Z,51.97
2018-11-28T01:15:16.360Z,54.47
2018-11-28T01:17:44.588Z,50.83
2018-11-28T01:20:14.689Z,50.10
2018-11-28T01:22:42.894Z,60.07
2018-11-28T01:25:12.013Z,50.30
2018-11-28T01:27:40.320Z,57.33
2018-11-28T01:30:14.021Z,58.17
2018-11-28T01:32:42.281Z,59.83
2018-11-28T01:35:11.365Z,52.73
2018-11-28T01:37:39.885Z,53.87
2018-11-28T01:40:16.214Z,60.23
2018-11-28T01:42:44.445Z,62.93
2018-11-28T01:45:17.686Z,61.97
2018-11-28T01:47:45.985Z,53.37
2018-11-28T01:50:15.052Z,55.20
2018-11-28T01:52:43.286Z,52.63
2018-11-28T01:55:12.464Z,51.47
2018-11-28T01:57:40.632Z,51.20
2018-11-28T02:00:20.046Z,60.07
2018-11-28T02:02:49.745Z,46.20
2018-11-28T02:05:18.053Z,57.07
2018-11-28T02:07:46.261Z,52.80
2018-11-28T02:10:15.022Z,60.90
2018-11-28T02:12:43.209Z,50.47
2018-11-28T02:15:19.317Z,54.10
2018-11-28T02:17:47.496Z,52.73
2018-11-28T02:20:16.478Z,61.63
2018-11-28T02:22:44.977Z,55.13
2018-11-28T02:25:14.973Z,60.80
2018-11-28T02:27:43.268Z,59.10
2018-11-28T02:30:13.505Z,51.57
2018-11-28T02:32:41.685Z,49.93
2018-11-28T02:35:10.945Z,54.67
2018-11-28T02:37:39.277Z,56.10
2018-11-28T02:40:08.990Z,54.20
2018-11-28T02:42:37.148Z,55.87
2018-11-28T02:45:13.208Z,61.17
2018-11-28T02:47:41.375Z,56.73
2018-11-28T02:50:09.611Z,58.93
2018-11-28T02:52:37.745Z,42.23
2018-11-28T02:55:07.901Z,53.73
2018-11-28T02:57:36.118Z,41.57
2018-11-28T03:00:08.992Z,47.03
2018-11-28T03:02:37.173Z,43.50
2018-11-28T03:05:06.841Z,48.43
2018-11-28T03:07:35.081Z,46.10
2018-11-28T03:10:03.249Z,51.03
2018-11-28T03:12:31.406Z,50.73
2018-11-28T03:14:59.600Z,56.57
2018-11-28T03:17:27.752Z,51.50
2018-11-28T03:19:55.961Z,45.33
2018-11-28T03:22:24.125Z,44.40
2018-11-28T03:24:52.368Z,47.30
2018-11-28T03:27:20.549Z,41.67
2018-11-28T03:29:48.752Z,47.40
2018-11-28T03:32:16.889Z,51.80
2018-11-28T03:34:45.611Z,42.60
2018-11-28T03:37:13.289Z,51.67
2018-11-28T03:39:41.516Z,45.83
2018-11-28T03:42:09.690Z,46.93
2018-11-28T03:44:37.892Z,43.13
2018-11-28T03:47:06.057Z,51.20
2018-11-28T03:49:34.210Z,50.40
2018-11-28T03:52:02.448Z,48.37
2018-11-28T03:54:30.561Z,47.57
2018-11-28T03:56:58.730Z,50.77
2018-11-28T03:59:26.968Z,54.43
2018-11-28T04:01:55.082Z,46.57
2018-11-28T04:04:23.257Z,50.40
2018-11-28T04:06:51.437Z,53.07
2018-11-28T04:09:19.593Z,46.70
2018-11-28T04:11:47.773Z,51.23
2018-11-28T04:14:16.536Z,50.37
2018-11-28T04:16:44.733Z,53.03
2018-11-28T04:19:12.906Z,56.77
2018-11-28T04:21:41.101Z,60.90
2018-11-28T04:24:09.249Z,57.13
2018-11-28T04:26:37.429Z,50.07
2018-11-28T04:29:06.198Z,48.87
2018-11-28T04:31:34.384Z,44.63
2018-11-28T04:34:02.493Z,56.13
2018-11-28T04:36:30.689Z,50.67
2018-11-28T04:38:58.904Z,55.63
2018-11-28T04:41:27.077Z,55.00
2018-11-28T04:43:55.292Z,63.97
2018-11-28T04:46:23.492Z,52.40
2018-11-28T04:48:51.588Z,54.63
2018-11-28T04:51:19.802Z,54.63
2018-11-28T04:53:47.988Z,49.90
2018-11-28T04:56:16.185Z,58.30
2018-11-28T04:58:44.312Z,49.90
2018-11-28T05:01:12.465Z,50.47
2018-11-28T05:03:40.705Z,55.73
2018-11-28T05:06:08.833Z,55.77
2018-11-28T05:08:36.990Z,57.67
2018-11-28T05:11:05.321Z,55.87
2018-11-28T05:13:33.561Z,54.60
2018-11-28T05:16:01.806Z,57.73
2018-11-28T05:18:29.989Z,56.63
2018-11-28T05:20:58.184Z,51.63
2018-11-28T05:23:26.333Z,50.07
2018-11-28T05:25:54.749Z,51.87
2018-11-28T05:28:22.901Z,48.77
2018-11-28T05:30:51.057Z,50.77
2018-11-28T05:33:19.240Z,50.63
2018-11-28T05:35:47.429Z,53.70
2018-11-28T05:38:16.149Z,51.53
2018-11-28T05:40:44.941Z,52.37
2018-11-28T05:43:13.186Z,52.80
2018-11-28T05:45:41.324Z,59.77
2018-11-28T05:48:09.501Z,52.37
2018-11-28T05:50:37.716Z,61.87
2018-11-28T05:53:05.844Z,53.70
2018-11-28T05:55:34.021Z,57.20
2018-11-28T05:58:02.787Z,56.03
2018-11-28T06:00:37.121Z,56.60
2018-11-28T06:03:06.921Z,54.33
2018-11-28T06:05:35.145Z,56.43
2018-11-28T06:08:03.284Z,60.03
2018-11-28T06:10:31.476Z,59.20
2018-11-28T06:12:59.629Z,55.50
2018-11-28T06:15:27.820Z,56.53
2018-11-28T06:17:55.997Z,58.33
2018-11-28T06:20:24.152Z,53.13
2018-11-28T06:22:52.341Z,54.43
2018-11-28T06:25:20.483Z,56.90
2018-11-28T06:27:48.675Z,48.40
2018-11-28T06:30:18.647Z,57.80
2018-11-28T06:32:51.349Z,53.43
2018-11-28T06:35:15.061Z,61.60
2018-11-28T06:37:43.473Z,53.63
2018-11-28T06:40:13.727Z,60.90
2018-11-28T06:42:42.178Z,71.27
2018-11-28T06:45:11.880Z,87.10
2018-11-28T06:47:40.134Z,65.63
2018-11-28T06:50:10.789Z,64.27
2018-11-28T06:52:39.007Z,52.90
2018-11-28T06:55:10.229Z,58.80
2018-11-28T06:57:38.445Z,49.67
2018-11-28T07:00:26.274Z,57.13
2018-11-28T07:02:54.440Z,51.60
2018-11-28T07:05:23.177Z,56.60
2018-11-28T07:07:51.995Z,54.63
2018-11-28T07:10:21.160Z,53.30
2018-11-28T07:12:49.414Z,55.43
2018-11-28T07:15:18.868Z,60.40
2018-11-28T07:17:47.057Z,54.20
2018-11-28T07:20:15.905Z,54.70
2018-11-28T07:22:44.141Z,55.23
2018-11-28T07:25:14.197Z,54.07
2018-11-28T07:27:45.105Z,59.23
2018-11-28T07:30:15.598Z,54.47
2018-11-28T07:32:43.788Z,52.53
2018-11-28T07:35:12.520Z,53.37
2018-11-28T07:37:40.770Z,50.33
2018-11-28T07:40:23.958Z,56.60
2018-11-28T07:43:13.208Z,49.20
2018-11-28T07:45:44.633Z,51.37
2018-11-28T07:48:12.877Z,56.47
2018-11-28T07:50:41.044Z,52.80
2018-11-28T07:53:09.201Z,53.37
2018-11-28T07:55:37.400Z,51.07
2018-11-28T07:58:06.016Z,53.07
2018-11-28T08:00:34.806Z,57.40
2018-11-28T08:03:03.041Z,52.00
2018-11-28T08:05:31.193Z,54.73
2018-11-28T08:07:59.381Z,47.60
2018-11-28T08:10:31.232Z,61.40
2018-11-28T08:12:59.401Z,53.30
2018-11-28T08:15:27.579Z,53.27
2018-11-28T08:17:55.773Z,55.90
2018-11-28T08:20:23.920Z,59.13
2018-11-28T08:22:52.097Z,50.93
2018-11-28T08:25:20.290Z,54.93
2018-11-28T08:27:49.423Z,54.30
2018-11-28T08:30:19.866Z,48.50
2018-11-28T08:32:47.877Z,48.93
2018-11-28T08:35:16.045Z,56.57
2018-11-28T08:37:44.236Z,51.77
2018-11-28T08:40:13.608Z,49.20
2018-11-28T08:42:41.820Z,51.30
2018-11-28T08:45:14.541Z,55.33
2018-11-28T08:47:43.006Z,48.67
2018-11-28T08:50:27.832Z,51.57
2018-11-28T08:52:55.981Z,51.93
2018-11-28T08:55:24.169Z,50.10
2018-11-28T08:57:52.416Z,52.80
2018-11-28T09:00:21.598Z,55.53
2018-11-28T09:02:50.885Z,48.23
2018-11-28T09:05:19.122Z,51.37
2018-11-28T09:07:47.274Z,47.87
2018-11-28T09:10:16.329Z,52.27
2018-11-28T09:12:45.150Z,47.33
2018-11-28T09:15:16.565Z,54.47
2018-11-28T09:17:44.800Z,48.67
2018-11-28T09:20:13.749Z,48.47
2018-11-28T09:22:41.949Z,50.20
2018-11-28T09:25:11.530Z,48.83
2018-11-28T09:27:39.725Z,49.63
2018-11-28T09:30:22.875Z,51.73
2018-11-28T09:32:51.353Z,51.07
2018-11-28T09:35:19.869Z,47.53
2018-11-28T09:37:48.145Z,49.43
2018-11-28T09:40:26.057Z,50.20
2018-11-28T09:42:55.469Z,49.50
2018-11-28T09:45:23.665Z,52.97
2018-11-28T09:47:51.843Z,46.13
2018-11-28T09:50:21.017Z,46.67
2018-11-28T09:52:49.332Z,50.13
2018-11-28T09:55:19.398Z,56.20
2018-11-28T09:57:47.805Z,45.20
2018-11-28T10:00:24.652Z,48.77
2018-11-28T10:02:54.781Z,50.53
2018-11-28T10:05:24.985Z,47.43
2018-11-28T10:07:53.205Z,51.77
2018-11-28T10:10:21.392Z,49.90
2018-11-28T10:12:49.545Z,52.43
2018-11-28T10:15:19.560Z,51.57
2018-11-28T10:17:47.873Z,46.10
2018-11-28T10:20:16.589Z,45.37
2018-11-28T10:22:45.064Z,46.10
2018-11-28T10:25:14.389Z,53.43
2018-11-28T10:27:43.362Z,48.23
2018-11-28T10:30:14.317Z,48.67
2018-11-28T10:32:42.533Z,44.43
2018-11-28T10:35:10.686Z,51.57
2018-11-28T10:37:38.893Z,51.33
2018-11-28T10:40:23.476Z,54.13
2018-11-28T10:42:52.817Z,43.27
2018-11-28T10:45:22.000Z,55.00
2018-11-28T10:47:50.185Z,53.83
2018-11-28T10:50:18.317Z,54.77
2018-11-28T10:52:46.541Z,61.10
2018-11-28T10:55:18.687Z,68.10
2018-11-28T10:57:46.900Z,68.53
2018-11-28T11:00:26.590Z,57.07
2018-11-28T11:03:00.261Z,48.93
2018-11-28T11:05:34.041Z,49.70
2018-11-28T11:08:07.795Z,47.87
2018-11-28T11:10:41.485Z,53.77
2018-11-28T11:13:15.045Z,54.40
2018-11-28T11:15:43.228Z,55.07
2018-11-28T11:18:12.057Z,69.50
2018-11-28T11:20:40.270Z,56.70
2018-11-28T11:23:08.888Z,48.70
2018-11-28T11:25:37.046Z,52.73
2018-11-28T11:28:05.577Z,50.20
2018-11-28T11:30:33.834Z,47.67
2018-11-28T11:33:01.954Z,49.27
2018-11-28T11:35:30.133Z,45.50
2018-11-28T11:37:58.324Z,40.80
2018-11-28T11:40:26.500Z,45.60
2018-11-28T11:42:54.649Z,44.67
2018-11-28T11:45:22.858Z,43.53
2018-11-28T11:47:51.001Z,44.30
2018-11-28T11:50:19.561Z,45.43
2018-11-28T11:52:47.802Z,49.13
2018-11-28T11:55:19.573Z,39.43
2018-11-28T11:57:48.381Z,42.83
2018-11-28T12:00:26.792Z,41.77
2018-11-28T12:03:01.887Z,41.47
2018-11-28T12:05:30.027Z,46.27
2018-11-28T12:07:58.194Z,42.73
2018-11-28T12:10:26.398Z,49.57
2018-11-28T12:12:54.547Z,44.17
2018-11-28T12:15:22.721Z,49.50
2018-11-28T12:17:50.909Z,43.20
2018-11-28T12:20:32.113Z,39.93
2018-11-28T12:23:00.261Z,39.07
2018-11-28T12:25:28.428Z,43.03
2018-11-28T12:27:56.588Z,45.13
2018-11-28T12:30:24.789Z,45.50
2018-11-28T12:32:53.037Z,52.17
2018-11-28T12:35:21.209Z,45.23
2018-11-28T12:37:52.744Z,43.50
2018-11-28T12:40:20.937Z,44.80
2018-11-28T12:42:50.630Z,40.80
2018-11-28T12:45:19.704Z,46.57
2018-11-28T12:47:48.380Z,39.30
2018-11-28T12:50:22.733Z,41.80
2018-11-28T12:52:51.589Z,37.73
2018-11-28T12:55:20.306Z,39.53
2018-11-28T13:05:00.025Z,44.57
2018-11-28T13:07:28.080Z,40.33
2018-11-28T13:09:56.252Z,48.07
2018-11-28T13:12:24.503Z,42.37
2018-11-28T13:14:52.701Z,47.70
2018-11-28T13:17:20.873Z,50.60
2018-11-28T13:19:49.127Z,43.60
2018-11-28T13:22:17.321Z,42.20
2018-11-28T13:24:45.524Z,43.70
2018-11-28T13:27:13.688Z,44.43
2018-11-28T13:29:41.844Z,46.00
2018-11-28T13:32:10.078Z,45.80
2018-11-28T13:34:38.337Z,45.07
2018-11-28T13:37:06.860Z,48.30
2018-11-28T13:39:35.068Z,51.57
2018-11-28T13:42:03.262Z,43.97
2018-11-28T13:44:31.392Z,47.00
2018-11-28T13:46:59.570Z,47.93
2018-11-28T13:49:27.760Z,47.73
2018-11-28T13:51:55.914Z,53.43
2018-11-28T13:54:24.084Z,45.10
2018-11-28T13:57:03.720Z,48.57
2018-11-28T13:59:20.590Z,50.17
2018-11-28T14:01:48.709Z,48.07
2018-11-28T14:04:16.892Z,44.63
2018-11-28T14:06:45.119Z,49.40
2018-11-28T14:09:13.328Z,44.67
2018-11-28T14:11:41.549Z,46.73
2018-11-28T14:14:09.681Z,46.07
2018-11-28T14:16:37.853Z,48.50
2018-11-28T14:19:06.077Z,50.03
2018-11-28T14:21:34.205Z,48.33
2018-11-28T14:24:02.373Z,49.73
2018-11-28T14:26:30.577Z,51.17
2018-11-28T14:28:58.717Z,53.37
2018-11-28T14:31:26.893Z,56.77
2018-11-28T14:33:55.081Z,45.70
2018-11-28T14:36:23.237Z,55.20
2018-11-28T14:38:51.413Z,50.67
2018-11-28T14:41:20.082Z,52.40
2018-11-28T14:46:28.352Z,55.60
2018-11-28T14:48:56.508Z,46.97
2018-11-28T14:51:24.676Z,52.43
2018-11-28T14:53:52.879Z,53.73
2018-11-28T14:56:21.025Z,50.40
2018-11-28T14:58:49.202Z,51.17
2018-11-28T15:04:09.262Z,51.10
2018-11-28T15:06:46.578Z,55.53
2018-11-28T15:09:20.308Z,46.20
2018-11-28T15:11:48.378Z,52.43
2018-11-28T15:14:16.621Z,52.40
2018-11-28T15:16:44.981Z,51.03
2018-11-28T15:19:13.177Z,61.80
2018-11-28T15:21:41.365Z,60.73
2018-11-28T15:24:09.602Z,52.87
2018-11-28T15:26:37.809Z,55.23
2018-11-28T15:29:06.685Z,63.50
2018-11-28T15:31:35.011Z,52.03
2018-11-28T15:34:03.153Z,53.60
2018-11-28T15:36:31.334Z,48.90
2018-11-28T15:38:59.554Z,50.27
2018-11-28T15:41:27.851Z,47.77
2018-11-28T15:43:56.048Z,51.57
2018-11-28T15:47:53.625Z,56.43
2018-11-28T15:50:21.793Z,50.93
2018-11-28T15:52:49.961Z,57.23
2018-11-28T15:55:18.184Z,52.57
2018-11-28T15:57:46.308Z,51.47
2018-11-28T16:00:19.520Z,54.03
2018-11-28T16:02:47.677Z,54.13
2018-11-28T16:05:15.861Z,55.97
2018-11-28T16:07:44.057Z,60.57
2018-11-28T16:10:18.698Z,61.87
2018-11-28T16:12:47.564Z,63.53
2018-11-28T16:15:25.141Z,63.93
2018-11-28T16:17:53.373Z,61.87
2018-11-28T16:20:21.629Z,55.80
2018-11-28T16:22:50.049Z,60.83
2018-11-28T16:25:18.300Z,52.47
2018-11-28T16:27:46.616Z,61.57
2018-11-28T16:30:15.772Z,63.40
2018-11-28T16:32:45.842Z,66.37
2018-11-28T16:35:15.307Z,61.07
2018-11-28T16:37:43.557Z,67.23
2018-11-28T16:40:13.113Z,65.07
2018-11-28T16:42:41.285Z,56.43
2018-11-28T16:45:12.832Z,57.80
2018-11-28T16:47:41.162Z,67.43
2018-11-28T16:50:10.248Z,70.60
2018-11-28T16:52:38.533Z,73.07
2018-11-28T16:55:08.156Z,63.80
2018-11-28T16:57:36.373Z,65.80
2018-11-28T17:00:15.342Z,68.87
2018-11-28T17:02:43.521Z,66.03
2018-11-28T17:05:14.996Z,70.77
2018-11-28T17:07:43.420Z,70.73
2018-11-28T17:10:13.718Z,73.13
2018-11-28T17:12:42.093Z,63.30
2018-11-28T17:15:12.752Z,65.63
2018-11-28T17:17:41.176Z,67.33
2018-11-28T17:20:12.761Z,62.43
2018-11-28T17:22:41.725Z,69.60
2018-11-28T17:25:13.547Z,72.43
2018-11-28T17:27:41.792Z,67.10
2018-11-28T17:30:12.564Z,68.37
2018-11-28T17:32:40.733Z,65.47
2018-11-28T17:35:09.969Z,65.37
2018-11-28T17:37:38.232Z,63.97
2018-11-28T17:40:09.225Z,61.90
2018-11-28T17:42:37.445Z,69.77
2018-11-28T17:45:08.617Z,64.87
2018-11-28T17:47:36.889Z,63.37
2018-11-28T17:50:09.381Z,60.53
2018-11-28T17:52:37.561Z,69.87
2018-11-28T17:55:08.477Z,69.43
2018-11-28T17:57:36.698Z,72.87
2018-11-28T18:00:07.892Z,67.27
2018-11-28T18:02:36.114Z,61.47
2018-11-28T18:05:04.733Z,58.27
2018-11-28T18:07:33.142Z,67.00
2018-11-28T18:10:01.357Z,60.60
2018-11-28T18:12:29.522Z,63.53
2018-11-28T18:14:57.710Z,74.57
2018-11-28T18:17:25.861Z,68.73
2018-11-28T18:19:54.033Z,71.67
2018-11-28T18:22:22.249Z,67.57
2018-11-28T18:24:50.545Z,61.20
2018-11-28T18:27:18.756Z,80.50
2018-11-28T18:29:47.686Z,68.13
2018-11-28T18:32:15.216Z,64.83
2018-11-28T18:34:43.378Z,70.37
2018-11-28T18:37:11.609Z,64.70
2018-11-28T18:39:39.843Z,72.07
2018-11-28T18:42:08.114Z,74.50
2018-11-28T18:44:36.316Z,71.37
2018-11-28T18:47:04.850Z,64.73
2018-11-28T18:49:33.139Z,64.87
2018-11-28T18:52:01.371Z,66.47
2018-11-28T18:54:29.629Z,64.50
2018-11-28T18:56:57.856Z,66.67
2018-11-28T18:59:26.073Z,68.73
2018-11-28T19:01:54.334Z,67.37
2018-11-28T19:04:22.477Z,57.07
2018-11-28T19:06:50.692Z,58.33
2018-11-28T19:09:24.436Z,68.47
2018-11-28T19:11:52.770Z,64.57
2018-11-28T19:14:21.048Z,61.63
2018-11-28T19:16:49.337Z,57.20
2018-11-28T19:19:17.625Z,59.87
2018-11-28T19:21:45.890Z,54.70
2018-11-28T19:24:14.143Z,56.13
2018-11-28T19:26:42.330Z,51.97
2018-11-28T19:29:10.608Z,55.03
2018-11-28T19:31:38.729Z,59.77
2018-11-28T19:34:06.929Z,58.87
2018-11-28T19:36:35.138Z,60.47
2018-11-28T19:39:03.626Z,53.00
2018-11-28T19:41:31.881Z,57.23
2018-11-28T19:44:00.116Z,57.17
2018-11-28T19:46:28.293Z,59.40
2018-11-28T19:48:57.528Z,52.30
2018-11-28T19:51:25.773Z,58.93
2018-11-28T19:53:53.929Z,166.27
2018-11-28T19:56:22.138Z,123.53
2018-11-28T19:58:50.281Z,70.27
2018-11-28T20:01:18.470Z,64.57
2018-11-28T20:03:46.673Z,59.10
2018-11-28T20:06:14.917Z,57.93
2018-11-28T20:08:43.105Z,58.93
2018-11-28T20:11:11.635Z,61.53
2018-11-28T20:13:39.837Z,62.67
2018-11-28T20:16:08.047Z,63.63
2018-11-28T20:18:36.301Z,60.03
2018-11-28T20:21:04.538Z,59.93
2018-11-28T20:23:32.795Z,59.77
2018-11-28T20:26:01.081Z,59.40
2018-11-28T20:28:29.281Z,66.83
2018-11-28T20:30:57.450Z,56.87
2018-11-28T20:33:25.687Z,60.77
2018-11-28T20:35:53.902Z,60.57
2018-11-28T20:38:30.041Z,58.00
2018-11-28T20:40:58.242Z,56.90
2018-11-28T20:43:26.425Z,55.50
2018-11-28T20:45:54.652Z,59.10
2018-11-28T20:48:22.854Z,58.10
2018-11-28T20:50:51.860Z,60.50
2018-11-28T20:53:20.957Z,57.47
2018-11-28T20:55:49.131Z,58.70
2018-11-28T20:58:17.328Z,55.50
2018-11-28T21:00:45.497Z,59.37
2018-11-28T21:03:13.640Z,59.57
2018-11-28T21:05:41.816Z,59.43
2018-11-28T21:08:10.276Z,54.47
2018-11-28T21:10:39.281Z,59.83
2018-11-28T21:13:11.662Z,61.47
2018-11-28T21:15:40.504Z,66.03
2018-11-28T21:18:09.063Z,60.87
2018-11-28T21:20:38.217Z,52.87
2018-11-28T21:23:10.106Z,63.53
2018-11-28T21:25:38.938Z,65.03
2018-11-28T21:28:07.205Z,58.87
2018-11-28T21:30:35.433Z,63.63
2018-11-28T21:33:03.663Z,61.70
2018-11-28T21:35:33.056Z,60.73
2018-11-28T21:38:01.301Z,63.33
2018-11-28T21:40:29.480Z,67.87
2018-11-28T21:42:57.745Z,59.13
2018-11-28T21:45:26.180Z,58.67
2018-11-28T21:47:54.454Z,61.60
2018-11-28T21:50:22.666Z,53.67
2018-11-28T21:52:50.833Z,55.57
2018-11-28T21:55:21.145Z,59.40
2018-11-28T21:57:49.324Z,59.40
2018-11-28T22:00:19.444Z,60.57
2018-11-28T22:02:47.675Z,61.20
2018-11-28T22:05:16.382Z,59.87
2018-11-28T22:07:44.597Z,63.43
2018-11-28T22:10:20.730Z,63.53
2018-11-28T22:12:48.936Z,57.80
2018-11-28T22:15:24.413Z,57.53
2018-11-28T22:17:54.631Z,52.00
2018-11-28T22:20:23.444Z,51.23
2018-11-28T22:22:51.670Z,58.20
2018-11-28T22:25:23.586Z,59.23
2018-11-28T22:27:51.850Z,57.53
2018-11-28T22:30:22.894Z,59.50
2018-11-28T22:32:51.110Z,63.23
2018-11-28T22:35:19.271Z,60.53
2018-11-28T22:37:47.461Z,65.67
2018-11-28T22:40:19.571Z,58.27
2018-11-28T22:42:47.800Z,62.10
2018-11-28T22:45:17.956Z,64.47
2018-11-28T22:47:46.191Z,64.13
2018-11-28T22:50:14.496Z,62.60
2018-11-28T22:52:42.725Z,58.63
2018-11-28T22:55:12.904Z,56.17
2018-11-28T22:57:41.156Z,52.90
2018-11-28T23:00:13.937Z,60.40
2018-11-28T23:02:48.397Z,55.10
2018-11-28T23:05:16.601Z,58.77
2018-11-28T23:07:44.841Z,60.43
2018-11-28T23:10:13.070Z,57.77
2018-11-28T23:12:41.218Z,54.47
2018-11-28T23:15:09.396Z,53.27
2018-11-28T23:17:37.594Z,51.43
2018-11-28T23:20:07.033Z,52.10
2018-11-28T23:22:35.257Z,51.93
2018-11-28T23:25:03.477Z,53.90
2018-11-28T23:27:31.700Z,61.00
2018-11-28T23:29:59.877Z,52.30
2018-11-28T23:32:28.061Z,54.80
2018-11-28T23:34:56.247Z,56.40
2018-11-28T23:37:24.385Z,60.13
2018-11-28T23:39:52.598Z,56.70
2018-11-28T23:42:20.733Z,57.80
2018-11-28T23:44:48.909Z,63.03
2018-11-28T23:47:17.105Z,63.30
2018-11-28T23:49:45.257Z,61.23
2018-11-28T23:52:13.429Z,69.77
2018-11-28T23:54:41.624Z,63.33
2018-11-28T23:57:09.782Z,59.47
2018-11-28T23:59:37.956Z,68.57
